sensor_id;sensor_type;location;lat;lon;timestamp;temperature;humidity
8067;DHT22;4076;48.076;9.118;2022-08-04T00:00:09;16.80;99.90
8067;DHT22;4076;48.076;9.118;2022-08-04T00:03:01;16.80;99.90
8067;DHT22;4076;48.076;9.118;2022-08-04T00:06:07;16.70;99.90
8067;DHT22;4076;48.076;9.118;2022-08-04T00:08:47;16.70;99.90
8067;DHT22;4076;48.076;9.118;2022-08-04T00:11:24;16.70;99.90
8067;DHT22;4076;48.076;9.118;2022-08-04T00:13:57;16.60;99.90
8067;DHT22;4076;48.076;9.118;2022-08-04T00:16:28;16.60;99.90
8067;DHT22;4076;48.076;9.118;2022-08-04T00:18:57;16.60;99.90
8067;DHT22;4076;48.076;9.118;2022-08-04T00:21:26;16.60;99.90
8067;DHT22;4076;48.076;9.118;2022-08-04T00:23:54;16.60;99.90
8067;DHT22;4076;48.076;9.118;2022-08-04T00:26:21;16.60;99.90
8067;DHT22;4076;48.076;9.118;2022-08-04T00:28:47;16.50;99.90
8067;DHT22;4076;48.076;9.118;2022-08-04T00:31:14;16.40;99.90
8067;DHT22;4076;48.076;9.118;2022-08-04T00:33:44;16.40;99.90
8067;DHT22;4076;48.076;9.118;2022-08-04T00:36:13;16.40;99.90
8067;DHT22;4076;48.076;9.118;2022-08-04T00:38:43;16.30;99.90
8067;DHT22;4076;48.076;9.118;2022-08-04T00:44:25;16.30;99.90
8067;DHT22;4076;48.076;9.118;2022-08-04T00:46:59;16.30;99.90
8067;DHT22;4076;48.076;9.118;2022-08-04T01:00:18;16.10;99.90
8067;DHT22;4076;48.076;9.118;2022-08-04T01:03:00;16.10;99.90
8067;DHT22;4076;48.076;9.118;2022-08-04T01:08:23;16.00;99.90
8067;DHT22;4076;48.076;9.118;2022-08-04T01:11:23;16.00;99.90
8067;DHT22;4076;48.076;9.118;2022-08-04T01:16:26;15.90;99.90
8067;DHT22;4076;48.076;9.118;2022-08-04T01:18:59;15.90;99.90
8067;DHT22;4076;48.076;9.118;2022-08-04T01:27:58;15.90;99.90
8067;DHT22;4076;48.076;9.118;2022-08-04T01:30:29;15.80;99.90
8067;DHT22;4076;48.076;9.118;2022-08-04T01:33:01;15.80;99.90
8067;DHT22;4076;48.076;9.118;2022-08-04T01:35:35;15.80;99.90
8067;DHT22;4076;48.076;9.118;2022-08-04T01:40:43;15.70;99.90
8067;DHT22;4076;48.076;9.118;2022-08-04T01:43:09;15.60;99.90
8067;DHT22;4076;48.076;9.118;2022-08-04T01:45:38;15.60;99.90
8067;DHT22;4076;48.076;9.118;2022-08-04T01:48:06;15.60;99.90
8067;DHT22;4076;48.076;9.118;2022-08-04T01:50:36;15.60;99.90
8067;DHT22;4076;48.076;9.118;2022-08-04T01:53:03;15.60;99.90
8067;DHT22;4076;48.076;9.118;2022-08-04T01:55:29;15.50;99.90
8067;DHT22;4076;48.076;9.118;2022-08-04T01:57:58;15.50;99.90
8067;DHT22;4076;48.076;9.118;2022-08-04T02:00:26;15.50;99.90
8067;DHT22;4076;48.076;9.118;2022-08-04T02:02:56;15.40;99.90
8067;DHT22;4076;48.076;9.118;2022-08-04T02:05:24;15.40;99.90
8067;DHT22;4076;48.076;9.118;2022-08-04T02:08:03;15.40;99.90
8067;DHT22;4076;48.076;9.118;2022-08-04T02:13:13;15.40;99.90
8067;DHT22;4076;48.076;9.118;2022-08-04T02:18:56;15.30;99.90
8067;DHT22;4076;48.076;9.118;2022-08-04T02:21:25;15.30;99.90
8067;DHT22;4076;48.076;9.118;2022-08-04T02:23:54;15.20;99.90
8067;DHT22;4076;48.076;9.118;2022-08-04T02:26:23;15.20;99.90
8067;DHT22;4076;48.076;9.118;2022-08-04T02:31:47;15.20;99.90
8067;DHT22;4076;48.076;9.118;2022-08-04T02:36:48;15.10;99.90
8067;DHT22;4076;48.076;9.118;2022-08-04T02:39:18;15.10;99.90
8067;DHT22;4076;48.076;9.118;2022-08-04T02:41:46;15.10;99.90
8067;DHT22;4076;48.076;9.118;2022-08-04T02:44:12;15.10;99.90
8067;DHT22;4076;48.076;9.118;2022-08-04T02:46:40;15.10;99.90
8067;DHT22;4076;48.076;9.118;2022-08-04T02:49:08;15.10;99.90
8067;DHT22;4076;48.076;9.118;2022-08-04T02:51:41;15.10;99.90
8067;DHT22;4076;48.076;9.118;2022-08-04T02:54:07;15.10;99.90
8067;DHT22;4076;48.076;9.118;2022-08-04T02:56:35;15.00;99.90
8067;DHT22;4076;48.076;9.118;2022-08-04T02:59:08;15.00;99.90
8067;DHT22;4076;48.076;9.118;2022-08-04T03:01:34;15.00;99.90
8067;DHT22;4076;48.076;9.118;2022-08-04T03:04:34;14.90;99.90
8067;DHT22;4076;48.076;9.118;2022-08-04T03:16:02;14.80;99.90
8067;DHT22;4076;48.076;9.118;2022-08-04T03:24:35;14.70;99.90
8067;DHT22;4076;48.076;9.118;2022-08-04T03:30:15;14.70;99.90
8067;DHT22;4076;48.076;9.118;2022-08-04T03:32:46;14.70;99.90
8067;DHT22;4076;48.076;9.118;2022-08-04T03:38:15;14.60;99.90
8067;DHT22;4076;48.076;9.118;2022-08-04T04:01:34;14.80;99.90
8067;DHT22;4076;48.076;9.118;2022-08-04T04:13:18;15.00;99.90
8067;DHT22;4076;48.076;9.118;2022-08-04T04:30:03;14.70;99.90
8067;DHT22;4076;48.076;9.118;2022-08-04T04:33:06;14.70;99.90
8067;DHT22;4076;48.076;9.118;2022-08-04T04:38:20;14.70;99.90
8067;DHT22;4076;48.076;9.118;2022-08-04T04:46:45;14.80;99.90
8067;DHT22;4076;48.076;9.118;2022-08-04T04:49:32;14.80;99.90
8067;DHT22;4076;48.076;9.118;2022-08-04T04:55:17;15.00;99.90
8067;DHT22;4076;48.076;9.118;2022-08-04T04:57:44;15.20;99.90
8067;DHT22;4076;48.076;9.118;2022-08-04T05:00:11;15.90;99.90
8067;DHT22;4076;48.076;9.118;2022-08-04T05:08:34;19.70;99.90
8067;DHT22;4076;48.076;9.118;2022-08-04T05:11:27;20.40;99.90
8067;DHT22;4076;48.076;9.118;2022-08-04T05:14:13;20.70;99.90
8067;DHT22;4076;48.076;9.118;2022-08-04T05:17:12;20.50;99.90
8067;DHT22;4076;48.076;9.118;2022-08-04T05:19:52;20.20;99.90
8067;DHT22;4076;48.076;9.118;2022-08-04T05:22:24;19.80;99.90
8067;DHT22;4076;48.076;9.118;2022-08-04T05:25:20;19.70;99.90
8067;DHT22;4076;48.076;9.118;2022-08-04T05:27:48;19.70;99.90
8067;DHT22;4076;48.076;9.118;2022-08-04T05:30:14;19.80;99.90
8067;DHT22;4076;48.076;9.118;2022-08-04T05:32:48;20.20;99.90
8067;DHT22;4076;48.076;9.118;2022-08-04T05:35:21;20.70;99.90
8067;DHT22;4076;48.076;9.118;2022-08-04T05:37:48;21.20;99.90
8067;DHT22;4076;48.076;9.118;2022-08-04T05:40:16;21.40;99.90
8067;DHT22;4076;48.076;9.118;2022-08-04T05:42:43;21.40;99.90
8067;DHT22;4076;48.076;9.118;2022-08-04T05:45:09;21.30;99.90
8067;DHT22;4076;48.076;9.118;2022-08-04T05:47:35;21.20;99.90
8067;DHT22;4076;48.076;9.118;2022-08-04T05:50:03;21.00;99.90
8067;DHT22;4076;48.076;9.118;2022-08-04T05:52:30;20.80;99.90
8067;DHT22;4076;48.076;9.118;2022-08-04T05:54:57;20.90;99.90
8067;DHT22;4076;48.076;9.118;2022-08-04T05:57:23;21.20;99.90
8067;DHT22;4076;48.076;9.118;2022-08-04T05:59:51;21.50;99.90
8067;DHT22;4076;48.076;9.118;2022-08-04T06:02:18;21.70;99.80
8067;DHT22;4076;48.076;9.118;2022-08-04T06:04:47;21.80;99.50
8067;DHT22;4076;48.076;9.118;2022-08-04T06:07:13;21.80;97.70
8067;DHT22;4076;48.076;9.118;2022-08-04T06:09:40;21.90;97.70
8067;DHT22;4076;48.076;9.118;2022-08-04T06:12:09;22.30;97.50
8067;DHT22;4076;48.076;9.118;2022-08-04T06:14:39;22.70;96.90
8067;DHT22;4076;48.076;9.118;2022-08-04T06:17:08;23.10;95.00
8067;DHT22;4076;48.076;9.118;2022-08-04T06:19:34;23.30;92.60
8067;DHT22;4076;48.076;9.118;2022-08-04T06:22:02;23.50;91.80
8067;DHT22;4076;48.076;9.118;2022-08-04T06:24:29;23.90;90.10
8067;DHT22;4076;48.076;9.118;2022-08-04T06:26:56;24.70;85.30
8067;DHT22;4076;48.076;9.118;2022-08-04T06:29:23;25.20;80.90
8067;DHT22;4076;48.076;9.118;2022-08-04T06:32:02;25.30;76.60
8067;DHT22;4076;48.076;9.118;2022-08-04T06:34:39;25.10;77.60
8067;DHT22;4076;48.076;9.118;2022-08-04T06:37:07;24.80;77.30
8067;DHT22;4076;48.076;9.118;2022-08-04T06:39:33;24.30;77.90
8067;DHT22;4076;48.076;9.118;2022-08-04T06:42:00;24.10;77.70
8067;DHT22;4076;48.076;9.118;2022-08-04T06:44:27;23.90;80.40
8067;DHT22;4076;48.076;9.118;2022-08-04T06:46:53;23.80;82.20
8067;DHT22;4076;48.076;9.118;2022-08-04T06:49:20;23.80;83.90
8067;DHT22;4076;48.076;9.118;2022-08-04T06:51:47;23.80;85.20
8067;DHT22;4076;48.076;9.118;2022-08-04T06:54:13;24.00;83.30
8067;DHT22;4076;48.076;9.118;2022-08-04T06:56:42;24.10;82.60
8067;DHT22;4076;48.076;9.118;2022-08-04T06:59:10;24.20;81.00
8067;DHT22;4076;48.076;9.118;2022-08-04T07:01:36;24.20;80.50
8067;DHT22;4076;48.076;9.118;2022-08-04T07:04:03;24.10;81.20
8067;DHT22;4076;48.076;9.118;2022-08-04T07:06:31;24.10;81.30
8067;DHT22;4076;48.076;9.118;2022-08-04T07:08:57;24.10;81.70
8067;DHT22;4076;48.076;9.118;2022-08-04T07:11:24;24.10;83.70
8067;DHT22;4076;48.076;9.118;2022-08-04T07:13:50;24.20;85.20
8067;DHT22;4076;48.076;9.118;2022-08-04T07:16:17;24.20;86.10
8067;DHT22;4076;48.076;9.118;2022-08-04T07:18:45;24.30;87.60
8067;DHT22;4076;48.076;9.118;2022-08-04T07:21:18;24.40;85.00
8067;DHT22;4076;48.076;9.118;2022-08-04T07:23:45;24.60;85.40
8067;DHT22;4076;48.076;9.118;2022-08-04T07:26:10;24.80;86.00
8067;DHT22;4076;48.076;9.118;2022-08-04T07:28:36;25.00;79.80
8067;DHT22;4076;48.076;9.118;2022-08-04T07:31:04;25.10;77.90
8067;DHT22;4076;48.076;9.118;2022-08-04T07:33:30;25.30;77.10
8067;DHT22;4076;48.076;9.118;2022-08-04T07:35:57;25.50;74.70
8067;DHT22;4076;48.076;9.118;2022-08-04T07:38:23;25.70;73.20
8067;DHT22;4076;48.076;9.118;2022-08-04T07:40:48;26.00;72.00
8067;DHT22;4076;48.076;9.118;2022-08-04T07:43:15;26.40;72.00
8067;DHT22;4076;48.076;9.118;2022-08-04T07:45:41;26.70;71.50
8067;DHT22;4076;48.076;9.118;2022-08-04T07:48:08;26.90;71.20
8067;DHT22;4076;48.076;9.118;2022-08-04T07:50:34;27.10;69.40
8067;DHT22;4076;48.076;9.118;2022-08-04T07:53:01;27.20;69.60
8067;DHT22;4076;48.076;9.118;2022-08-04T07:55:28;27.40;67.50
8067;DHT22;4076;48.076;9.118;2022-08-04T07:57:54;27.70;66.80
8067;DHT22;4076;48.076;9.118;2022-08-04T08:00:19;28.00;64.60
8067;DHT22;4076;48.076;9.118;2022-08-04T08:02:48;28.20;59.80
8067;DHT22;4076;48.076;9.118;2022-08-04T08:05:16;28.50;58.60
8067;DHT22;4076;48.076;9.118;2022-08-04T08:07:47;28.90;59.00
8067;DHT22;4076;48.076;9.118;2022-08-04T08:10:13;29.20;58.00
8067;DHT22;4076;48.076;9.118;2022-08-04T08:12:40;29.70;58.00
8067;DHT22;4076;48.076;9.118;2022-08-04T08:15:08;30.10;56.30
8067;DHT22;4076;48.076;9.118;2022-08-04T08:17:34;30.60;55.60
8067;DHT22;4076;48.076;9.118;2022-08-04T08:20:00;31.20;54.70
8067;DHT22;4076;48.076;9.118;2022-08-04T08:22:26;31.70;55.70
8067;DHT22;4076;48.076;9.118;2022-08-04T08:24:52;32.20;53.70
8067;DHT22;4076;48.076;9.118;2022-08-04T08:27:17;32.90;47.60
8067;DHT22;4076;48.076;9.118;2022-08-04T08:29:43;33.50;45.50
8067;DHT22;4076;48.076;9.118;2022-08-04T08:32:10;34.40;44.60
8067;DHT22;4076;48.076;9.118;2022-08-04T08:34:38;35.70;43.70
8067;DHT22;4076;48.076;9.118;2022-08-04T08:37:29;37.80;39.70
8067;DHT22;4076;48.076;9.118;2022-08-04T08:40:26;40.60;36.70
8067;DHT22;4076;48.076;9.118;2022-08-04T08:48:30;45.40;29.90
8067;DHT22;4076;48.076;9.118;2022-08-04T09:00:00;49.50;33.70
8067;DHT22;4076;48.076;9.118;2022-08-04T09:08:43;50.50;30.10
8067;DHT22;4076;48.076;9.118;2022-08-04T09:11:21;50.60;30.90
8067;DHT22;4076;48.076;9.118;2022-08-04T09:13:57;50.30;32.70
8067;DHT22;4076;48.076;9.118;2022-08-04T09:16:37;49.80;24.00
8067;DHT22;4076;48.076;9.118;2022-08-04T09:19:32;50.00;25.70
8067;DHT22;4076;48.076;9.118;2022-08-04T09:22:10;50.20;25.90
8067;DHT22;4076;48.076;9.118;2022-08-04T09:24:48;50.50;25.90
8067;DHT22;4076;48.076;9.118;2022-08-04T09:27:22;50.80;26.20
8067;DHT22;4076;48.076;9.118;2022-08-04T09:30:03;50.80;25.70
8067;DHT22;4076;48.076;9.118;2022-08-04T09:32:39;50.60;26.10
8067;DHT22;4076;48.076;9.118;2022-08-04T09:35:14;50.40;26.50
8067;DHT22;4076;48.076;9.118;2022-08-04T09:40:40;50.50;26.10
8067;DHT22;4076;48.076;9.118;2022-08-04T09:46:32;50.30;26.30
8067;DHT22;4076;48.076;9.118;2022-08-04T09:49:04;49.90;26.30
8067;DHT22;4076;48.076;9.118;2022-08-04T10:00:09;45.10;29.30
8067;DHT22;4076;48.076;9.118;2022-08-04T10:02:44;43.50;34.20
8067;DHT22;4076;48.076;9.118;2022-08-04T10:08:14;40.70;30.40
8067;DHT22;4076;48.076;9.118;2022-08-04T10:16:37;38.40;31.30
8067;DHT22;4076;48.076;9.118;2022-08-04T10:27:15;37.20;32.40
8067;DHT22;4076;48.076;9.118;2022-08-04T10:29:46;37.00;33.10
8067;DHT22;4076;48.076;9.118;2022-08-04T10:32:24;37.00;33.30
8067;DHT22;4076;48.076;9.118;2022-08-04T10:35:10;37.00;33.60
8067;DHT22;4076;48.076;9.118;2022-08-04T10:37:43;36.90;34.40
8067;DHT22;4076;48.076;9.118;2022-08-04T10:40:22;37.00;33.80
8067;DHT22;4076;48.076;9.118;2022-08-04T10:43:12;36.90;34.30
8067;DHT22;4076;48.076;9.118;2022-08-04T10:45:45;36.70;34.60
8067;DHT22;4076;48.076;9.118;2022-08-04T10:48:48;36.50;34.50
8067;DHT22;4076;48.076;9.118;2022-08-04T10:54:26;36.50;34.90
8067;DHT22;4076;48.076;9.118;2022-08-04T11:00:03;36.20;35.10
8067;DHT22;4076;48.076;9.118;2022-08-04T11:02:52;36.00;36.10
8067;DHT22;4076;48.076;9.118;2022-08-04T11:07:50;35.70;35.30
8067;DHT22;4076;48.076;9.118;2022-08-04T11:10:19;35.40;37.40
8067;DHT22;4076;48.076;9.118;2022-08-04T11:12:47;35.30;36.20
8067;DHT22;4076;48.076;9.118;2022-08-04T11:15:30;35.20;35.30
8067;DHT22;4076;48.076;9.118;2022-08-04T11:18:04;35.40;38.80
8067;DHT22;4076;48.076;9.118;2022-08-04T11:20:54;35.30;38.30
8067;DHT22;4076;48.076;9.118;2022-08-04T11:23:29;35.20;41.10
8067;DHT22;4076;48.076;9.118;2022-08-04T11:26:08;35.20;38.40
8067;DHT22;4076;48.076;9.118;2022-08-04T11:31:25;35.10;38.40
8067;DHT22;4076;48.076;9.118;2022-08-04T11:42:24;34.40;37.60
8067;DHT22;4076;48.076;9.118;2022-08-04T11:50:13;34.10;37.00
8067;DHT22;4076;48.076;9.118;2022-08-04T11:52:44;34.10;34.40
8067;DHT22;4076;48.076;9.118;2022-08-04T11:55:13;34.20;31.90
8067;DHT22;4076;48.076;9.118;2022-08-04T11:57:40;34.10;32.60
8067;DHT22;4076;48.076;9.118;2022-08-04T12:00:08;34.30;33.40
8067;DHT22;4076;48.076;9.118;2022-08-04T12:05:20;34.20;32.90
8067;DHT22;4076;48.076;9.118;2022-08-04T12:13:38;34.30;31.00
8067;DHT22;4076;48.076;9.118;2022-08-04T12:16:31;34.30;29.70
8067;DHT22;4076;48.076;9.118;2022-08-04T12:19:02;34.30;31.50
8067;DHT22;4076;48.076;9.118;2022-08-04T12:21:34;34.30;32.20
8067;DHT22;4076;48.076;9.118;2022-08-04T12:24:11;34.40;30.50
8067;DHT22;4076;48.076;9.118;2022-08-04T12:26:42;34.40;29.90
8067;DHT22;4076;48.076;9.118;2022-08-04T12:29:10;34.20;30.30
8067;DHT22;4076;48.076;9.118;2022-08-04T12:31:52;34.10;31.00
8067;DHT22;4076;48.076;9.118;2022-08-04T12:34:41;34.10;29.60
8067;DHT22;4076;48.076;9.118;2022-08-04T12:37:32;34.10;29.50
8067;DHT22;4076;48.076;9.118;2022-08-04T12:40:04;34.00;29.60
8067;DHT22;4076;48.076;9.118;2022-08-04T12:42:50;33.90;30.40
8067;DHT22;4076;48.076;9.118;2022-08-04T12:45:17;33.90;31.40
8067;DHT22;4076;48.076;9.118;2022-08-04T12:47:44;33.80;31.60
8067;DHT22;4076;48.076;9.118;2022-08-04T12:50:13;33.80;30.80
8067;DHT22;4076;48.076;9.118;2022-08-04T12:52:46;33.80;30.70
8067;DHT22;4076;48.076;9.118;2022-08-04T12:55:12;33.80;31.00
8067;DHT22;4076;48.076;9.118;2022-08-04T12:57:39;33.80;30.40
8067;DHT22;4076;48.076;9.118;2022-08-04T13:00:07;33.80;31.30
8067;DHT22;4076;48.076;9.118;2022-08-04T13:02:38;33.80;32.00
8067;DHT22;4076;48.076;9.118;2022-08-04T13:05:07;33.90;31.60
8067;DHT22;4076;48.076;9.118;2022-08-04T13:07:41;33.90;32.80
8067;DHT22;4076;48.076;9.118;2022-08-04T13:10:14;34.00;33.10
8067;DHT22;4076;48.076;9.118;2022-08-04T13:12:48;34.10;32.60
8067;DHT22;4076;48.076;9.118;2022-08-04T13:15:19;33.90;32.60
8067;DHT22;4076;48.076;9.118;2022-08-04T13:18:07;33.90;33.00
8067;DHT22;4076;48.076;9.118;2022-08-04T13:20:36;33.90;35.20
8067;DHT22;4076;48.076;9.118;2022-08-04T13:23:05;33.80;39.90
8067;DHT22;4076;48.076;9.118;2022-08-04T13:25:33;33.90;34.30
8067;DHT22;4076;48.076;9.118;2022-08-04T13:28:00;33.90;34.70
8067;DHT22;4076;48.076;9.118;2022-08-04T13:30:27;33.90;35.20
8067;DHT22;4076;48.076;9.118;2022-08-04T13:32:59;33.90;34.70
8067;DHT22;4076;48.076;9.118;2022-08-04T13:35:26;34.00;34.10
8067;DHT22;4076;48.076;9.118;2022-08-04T13:37:53;33.90;34.10
8067;DHT22;4076;48.076;9.118;2022-08-04T13:40:21;34.00;35.40
8067;DHT22;4076;48.076;9.118;2022-08-04T13:42:50;34.10;35.60
8067;DHT22;4076;48.076;9.118;2022-08-04T13:45:21;34.20;35.70
8067;DHT22;4076;48.076;9.118;2022-08-04T13:47:48;34.20;34.80
8067;DHT22;4076;48.076;9.118;2022-08-04T13:52:44;34.10;35.40
8067;DHT22;4076;48.076;9.118;2022-08-04T13:55:31;34.10;34.10
8067;DHT22;4076;48.076;9.118;2022-08-04T14:00:41;33.90;34.40
8067;DHT22;4076;48.076;9.118;2022-08-04T14:03:08;33.90;34.70
8067;DHT22;4076;48.076;9.118;2022-08-04T14:05:34;34.00;34.80
8067;DHT22;4076;48.076;9.118;2022-08-04T14:08:24;34.10;34.60
8067;DHT22;4076;48.076;9.118;2022-08-04T14:10:56;34.00;34.30
8067;DHT22;4076;48.076;9.118;2022-08-04T14:13:33;34.00;34.40
8067;DHT22;4076;48.076;9.118;2022-08-04T14:15:59;33.90;33.30
8067;DHT22;4076;48.076;9.118;2022-08-04T14:18:29;33.80;33.30
8067;DHT22;4076;48.076;9.118;2022-08-04T14:23:48;33.70;33.60
8067;DHT22;4076;48.076;9.118;2022-08-04T14:26:25;33.80;34.00
8067;DHT22;4076;48.076;9.118;2022-08-04T14:28:53;33.80;34.00
8067;DHT22;4076;48.076;9.118;2022-08-04T14:31:22;33.80;33.50
8067;DHT22;4076;48.076;9.118;2022-08-04T14:33:51;33.90;33.70
8067;DHT22;4076;48.076;9.118;2022-08-04T14:36:18;33.90;33.50
8067;DHT22;4076;48.076;9.118;2022-08-04T14:38:56;33.90;32.80
8067;DHT22;4076;48.076;9.118;2022-08-04T14:41:28;33.80;34.10
8067;DHT22;4076;48.076;9.118;2022-08-04T14:43:54;33.80;33.70
8067;DHT22;4076;48.076;9.118;2022-08-04T14:46:23;33.80;33.10
8067;DHT22;4076;48.076;9.118;2022-08-04T14:51:33;33.70;32.50
8067;DHT22;4076;48.076;9.118;2022-08-04T14:53:59;33.70;32.60
8067;DHT22;4076;48.076;9.118;2022-08-04T14:56:25;33.60;32.70
8067;DHT22;4076;48.076;9.118;2022-08-04T14:58:58;33.60;33.90
8067;DHT22;4076;48.076;9.118;2022-08-04T15:01:24;33.60;34.00
8067;DHT22;4076;48.076;9.118;2022-08-04T15:03:53;33.60;33.40
8067;DHT22;4076;48.076;9.118;2022-08-04T15:06:23;33.60;33.20
8067;DHT22;4076;48.076;9.118;2022-08-04T15:08:51;33.50;32.90
8067;DHT22;4076;48.076;9.118;2022-08-04T15:11:17;33.50;33.10
8067;DHT22;4076;48.076;9.118;2022-08-04T15:13:43;33.60;32.20
8067;DHT22;4076;48.076;9.118;2022-08-04T15:16:10;33.60;31.80
8067;DHT22;4076;48.076;9.118;2022-08-04T15:18:37;33.50;32.60
8067;DHT22;4076;48.076;9.118;2022-08-04T15:21:05;33.50;33.40
8067;DHT22;4076;48.076;9.118;2022-08-04T15:23:31;33.50;32.10
8067;DHT22;4076;48.076;9.118;2022-08-04T15:25:59;33.50;32.40
8067;DHT22;4076;48.076;9.118;2022-08-04T15:28:28;33.50;32.70
8067;DHT22;4076;48.076;9.118;2022-08-04T15:30:55;33.50;31.70
8067;DHT22;4076;48.076;9.118;2022-08-04T15:33:23;33.50;32.60
8067;DHT22;4076;48.076;9.118;2022-08-04T15:35:55;33.40;32.40
8067;DHT22;4076;48.076;9.118;2022-08-04T15:44:35;33.10;32.50
8067;DHT22;4076;48.076;9.118;2022-08-04T15:47:10;33.00;33.00
8067;DHT22;4076;48.076;9.118;2022-08-04T15:49:36;32.80;32.10
8067;DHT22;4076;48.076;9.118;2022-08-04T15:52:09;32.60;33.00
8067;DHT22;4076;48.076;9.118;2022-08-04T15:54:36;32.40;32.80
8067;DHT22;4076;48.076;9.118;2022-08-04T15:57:03;32.30;33.20
8067;DHT22;4076;48.076;9.118;2022-08-04T15:59:55;32.30;33.30
8067;DHT22;4076;48.076;9.118;2022-08-04T16:08:10;32.70;32.60
8067;DHT22;4076;48.076;9.118;2022-08-04T16:10:37;32.70;32.60
8067;DHT22;4076;48.076;9.118;2022-08-04T16:13:09;32.80;31.50
8067;DHT22;4076;48.076;9.118;2022-08-04T16:15:53;32.80;31.60
8067;DHT22;4076;48.076;9.118;2022-08-04T16:18:21;32.80;31.30
8067;DHT22;4076;48.076;9.118;2022-08-04T16:21:04;32.80;32.50
8067;DHT22;4076;48.076;9.118;2022-08-04T16:34:45;32.60;33.10
8067;DHT22;4076;48.076;9.118;2022-08-04T16:37:15;32.60;32.80
8067;DHT22;4076;48.076;9.118;2022-08-04T16:39:42;32.50;32.40
8067;DHT22;4076;48.076;9.118;2022-08-04T16:42:31;32.50;32.50
8067;DHT22;4076;48.076;9.118;2022-08-04T16:50:15;32.40;31.80
8067;DHT22;4076;48.076;9.118;2022-08-04T16:55:15;32.30;32.10
8067;DHT22;4076;48.076;9.118;2022-08-04T16:57:45;32.30;31.80
8067;DHT22;4076;48.076;9.118;2022-08-04T17:00:11;32.30;32.70
8067;DHT22;4076;48.076;9.118;2022-08-04T17:02:37;32.20;31.10
8067;DHT22;4076;48.076;9.118;2022-08-04T17:05:03;32.20;31.90
8067;DHT22;4076;48.076;9.118;2022-08-04T17:07:48;32.10;31.30
8067;DHT22;4076;48.076;9.118;2022-08-04T17:10:14;32.10;32.00
8067;DHT22;4076;48.076;9.118;2022-08-04T17:12:40;32.00;31.80
8067;DHT22;4076;48.076;9.118;2022-08-04T17:15:19;31.90;32.90
8067;DHT22;4076;48.076;9.118;2022-08-04T17:17:45;31.90;31.80
8067;DHT22;4076;48.076;9.118;2022-08-04T17:20:10;31.80;31.70
8067;DHT22;4076;48.076;9.118;2022-08-04T17:22:36;31.80;31.60
8067;DHT22;4076;48.076;9.118;2022-08-04T17:25:02;31.80;32.40
8067;DHT22;4076;48.076;9.118;2022-08-04T17:27:29;31.70;32.40
8067;DHT22;4076;48.076;9.118;2022-08-04T17:29:55;31.70;32.70
8067;DHT22;4076;48.076;9.118;2022-08-04T17:32:21;31.60;33.20
8067;DHT22;4076;48.076;9.118;2022-08-04T17:34:48;31.50;33.30
8067;DHT22;4076;48.076;9.118;2022-08-04T17:37:14;31.40;33.60
8067;DHT22;4076;48.076;9.118;2022-08-04T17:39:40;31.40;34.20
8067;DHT22;4076;48.076;9.118;2022-08-04T17:42:05;31.20;34.40
8067;DHT22;4076;48.076;9.118;2022-08-04T17:44:36;31.20;35.60
8067;DHT22;4076;48.076;9.118;2022-08-04T17:47:16;31.00;36.60
8067;DHT22;4076;48.076;9.118;2022-08-04T17:49:42;30.80;37.60
8067;DHT22;4076;48.076;9.118;2022-08-04T17:52:19;30.70;38.60
8067;DHT22;4076;48.076;9.118;2022-08-04T17:54:45;30.40;39.30
8067;DHT22;4076;48.076;9.118;2022-08-04T17:57:17;30.30;39.50
8067;DHT22;4076;48.076;9.118;2022-08-04T17:59:56;30.10;40.30
8067;DHT22;4076;48.076;9.118;2022-08-04T18:02:23;29.90;41.00
8067;DHT22;4076;48.076;9.118;2022-08-04T18:04:50;29.70;42.40
8067;DHT22;4076;48.076;9.118;2022-08-04T18:07:20;29.50;41.80
8067;DHT22;4076;48.076;9.118;2022-08-04T18:14:55;28.80;48.30
8067;DHT22;4076;48.076;9.118;2022-08-04T18:17:41;28.60;48.00
8067;DHT22;4076;48.076;9.118;2022-08-04T18:20:18;28.30;48.60
8067;DHT22;4076;48.076;9.118;2022-08-04T18:22:45;28.20;49.60
8067;DHT22;4076;48.076;9.118;2022-08-04T18:25:14;28.00;50.40
8067;DHT22;4076;48.076;9.118;2022-08-04T18:27:50;27.80;50.40
8067;DHT22;4076;48.076;9.118;2022-08-04T18:30:18;27.70;50.90
8067;DHT22;4076;48.076;9.118;2022-08-04T18:32:44;27.50;50.80
8067;DHT22;4076;48.076;9.118;2022-08-04T18:35:10;27.20;50.90
8067;DHT22;4076;48.076;9.118;2022-08-04T18:37:36;27.10;51.10
8067;DHT22;4076;48.076;9.118;2022-08-04T18:40:06;26.90;52.20
8067;DHT22;4076;48.076;9.118;2022-08-04T18:42:34;26.70;52.40
8067;DHT22;4076;48.076;9.118;2022-08-04T18:44:59;26.50;52.10
8067;DHT22;4076;48.076;9.118;2022-08-04T18:47:25;26.30;53.00
8067;DHT22;4076;48.076;9.118;2022-08-04T18:49:51;26.20;53.80
8067;DHT22;4076;48.076;9.118;2022-08-04T18:52:17;26.00;54.20
8067;DHT22;4076;48.076;9.118;2022-08-04T18:54:43;25.90;54.50
8067;DHT22;4076;48.076;9.118;2022-08-04T18:57:08;25.70;55.10
8067;DHT22;4076;48.076;9.118;2022-08-04T18:59:34;25.60;55.10
8067;DHT22;4076;48.076;9.118;2022-08-04T19:01:59;25.50;55.30
8067;DHT22;4076;48.076;9.118;2022-08-04T19:04:25;25.30;55.20
8067;DHT22;4076;48.076;9.118;2022-08-04T19:06:51;25.30;55.60
8067;DHT22;4076;48.076;9.118;2022-08-04T19:09:16;25.10;56.00
8067;DHT22;4076;48.076;9.118;2022-08-04T19:11:42;25.10;56.10
8067;DHT22;4076;48.076;9.118;2022-08-04T19:14:08;24.90;56.40
8067;DHT22;4076;48.076;9.118;2022-08-04T19:16:34;24.80;56.60
8067;DHT22;4076;48.076;9.118;2022-08-04T19:19:02;24.60;57.00
8067;DHT22;4076;48.076;9.118;2022-08-04T19:21:29;24.40;58.10
8067;DHT22;4076;48.076;9.118;2022-08-04T19:23:55;24.30;59.30
8067;DHT22;4076;48.076;9.118;2022-08-04T19:26:21;24.20;59.90
8067;DHT22;4076;48.076;9.118;2022-08-04T19:28:48;24.00;59.90
8067;DHT22;4076;48.076;9.118;2022-08-04T19:31:14;23.90;60.50
8067;DHT22;4076;48.076;9.118;2022-08-04T19:33:39;23.80;61.60
8067;DHT22;4076;48.076;9.118;2022-08-04T19:36:06;23.80;61.90
8067;DHT22;4076;48.076;9.118;2022-08-04T19:38:32;23.80;61.80
8067;DHT22;4076;48.076;9.118;2022-08-04T19:40:59;23.70;62.20
8067;DHT22;4076;48.076;9.118;2022-08-04T19:43:24;23.50;65.70
8067;DHT22;4076;48.076;9.118;2022-08-04T19:45:50;23.40;70.10
8067;DHT22;4076;48.076;9.118;2022-08-04T19:48:16;23.30;76.90
8067;DHT22;4076;48.076;9.118;2022-08-04T19:50:41;23.20;72.00
8067;DHT22;4076;48.076;9.118;2022-08-04T19:53:07;23.20;72.10
8067;DHT22;4076;48.076;9.118;2022-08-04T19:55:33;23.10;69.90
8067;DHT22;4076;48.076;9.118;2022-08-04T19:58:03;23.00;72.70
8067;DHT22;4076;48.076;9.118;2022-08-04T20:00:29;23.00;72.90
8067;DHT22;4076;48.076;9.118;2022-08-04T20:02:55;23.00;70.40
8067;DHT22;4076;48.076;9.118;2022-08-04T20:05:22;22.90;68.70
8067;DHT22;4076;48.076;9.118;2022-08-04T20:07:48;22.80;67.80
8067;DHT22;4076;48.076;9.118;2022-08-04T20:10:14;22.70;67.30
8067;DHT22;4076;48.076;9.118;2022-08-04T20:12:40;22.60;68.90
8067;DHT22;4076;48.076;9.118;2022-08-04T20:15:06;22.50;69.80
8067;DHT22;4076;48.076;9.118;2022-08-04T20:17:32;22.40;71.00
8067;DHT22;4076;48.076;9.118;2022-08-04T20:19:58;22.40;71.90
8067;DHT22;4076;48.076;9.118;2022-08-04T20:22:23;22.30;77.60
8067;DHT22;4076;48.076;9.118;2022-08-04T20:24:50;22.20;77.60
8067;DHT22;4076;48.076;9.118;2022-08-04T20:27:16;22.20;78.70
8067;DHT22;4076;48.076;9.118;2022-08-04T20:29:44;22.10;75.10
8067;DHT22;4076;48.076;9.118;2022-08-04T20:32:10;22.10;75.60
8067;DHT22;4076;48.076;9.118;2022-08-04T20:34:36;22.00;75.10
8067;DHT22;4076;48.076;9.118;2022-08-04T20:37:02;21.90;76.50
8067;DHT22;4076;48.076;9.118;2022-08-04T20:39:27;21.80;78.20